San Juan

Airport
ICAO code: 
TJSJ
Summary
ICAO Region: 
CARSAM
Territory: 
Location: 
Carolina,
Coordinates: 
Aerial View: 
18° 26' 21.839" N, 66° 0' 6.482" W
Metar
Observation
TJSJ 241556Z 17003KT 10SM FEW028 FEW040 28/18 A2998 RMK AO2 SLP152 T02830178
Station
San Juan, Luis Munoz Marin International Airport
Date/Time
2022-01-24 15:56:00
Wind direction
170°
Wind speed
03 kts
Lowest cloud amount
few clouds
Temperature
28.3°C
Dew point
17.8°C
Humidity
53%
Weather condition
n/a

Description

Luis Muñoz Marín International Airport is a joint civil-military public airport located in Carolina, Puerto Rico, 5 km southeast of San Juan.

Climatology

Tropical Monsoon climate (Köppen climate classification Am) - monthly mean temperatures above 18°C in every month of the year and features wet and dry seasons. A tropical monsoon climate typically features less pronounced dry seasons than a tropical savanna climate and see less variance in temperatures during the course of the year. The driest month nearly always occurs at or soon after the "winter" solstice.

Runways

Designator Length Width Surface Rops
10/28 2443 46 CON Yes/Yes
8/26 3049 61 ASP Yes/Yes
Airport map: 
Aerial View: 

Accidents and Serious Incidents at or in the vicinity of TJSJ

SKYbrary Partners:

Safety knowledge contributed by: